createdAt,value
2023-10-13T00:01:01.190Z,19.92
2023-10-13T00:03:42.508Z,19.17
2023-10-13T00:06:32.397Z,19.70
2023-10-13T00:09:02.699Z,20.77
2023-10-13T00:11:33.910Z,18.30
2023-10-13T00:14:08.116Z,23.10
2023-10-13T00:16:42.082Z,22.70
2023-10-13T00:19:14.640Z,20.50
2023-10-13T00:21:45.844Z,21.23
2023-10-13T00:24:16.663Z,20.10
2023-10-13T00:26:47.294Z,19.42
2023-10-13T00:29:19.341Z,17.27
2023-10-13T00:31:50.725Z,20.63
2023-10-13T00:34:27.268Z,19.27
2023-10-13T00:37:11.901Z,18.77
2023-10-13T00:39:45.445Z,22.38
2023-10-13T00:42:31.964Z,18.48
2023-10-13T00:45:03.089Z,19.23
2023-10-13T00:47:50.642Z,18.55
2023-10-13T00:50:21.196Z,17.45
2023-10-13T00:52:53.129Z,18.48
2023-10-13T00:55:24.356Z,17.83
2023-10-13T00:57:58.673Z,20.27
2023-10-13T01:00:29.984Z,19.90
2023-10-13T01:03:08.153Z,21.27
2023-10-13T01:05:38.624Z,22.10
2023-10-13T01:08:12.580Z,23.17
2023-10-13T01:10:43.037Z,24.65
2023-10-13T01:13:13.985Z,25.58
2023-10-13T01:15:48.270Z,24.63
2023-10-13T01:18:18.288Z,25.33
2023-10-13T01:20:53.577Z,27.27
2023-10-13T01:23:26.265Z,28.88
2023-10-13T01:25:57.548Z,22.67
2023-10-13T01:28:27.262Z,26.73
2023-10-13T01:30:57.527Z,30.13
2023-10-13T01:33:28.378Z,29.10
2023-10-13T01:36:00.377Z,28.73
2023-10-13T01:38:34.850Z,27.57
2023-10-13T01:41:09.991Z,26.67
2023-10-13T01:43:40.642Z,27.02
2023-10-13T01:46:11.067Z,28.10
2023-10-13T01:48:43.045Z,29.55
2023-10-13T01:51:12.610Z,31.90
2023-10-13T01:53:45.033Z,27.05
2023-10-13T01:56:15.444Z,31.23
2023-10-13T01:58:49.068Z,30.35
2023-10-13T02:04:04.870Z,30.38
2023-10-13T02:06:37.562Z,27.95
2023-10-13T02:09:15.804Z,26.98
2023-10-13T02:11:47.133Z,29.63
2023-10-13T02:14:19.477Z,29.13
2023-10-13T02:16:51.154Z,30.52
2023-10-13T02:19:21.940Z,29.92
2023-10-13T02:21:59.976Z,28.77
2023-10-13T02:24:32.258Z,28.15
2023-10-13T02:27:10.646Z,30.75
2023-10-13T02:29:41.580Z,28.85
2023-10-13T02:32:19.820Z,28.60
2023-10-13T02:34:50.619Z,30.02
2023-10-13T02:37:21.025Z,35.40
2023-10-13T02:39:53.044Z,34.67
2023-10-13T02:42:24.650Z,26.10
2023-10-13T02:44:58.673Z,29.23
2023-10-13T02:47:30.248Z,33.55
2023-10-13T02:50:02.130Z,28.30
2023-10-13T02:52:39.222Z,27.80
2023-10-13T02:55:15.856Z,25.52
2023-10-13T02:57:45.968Z,28.25
2023-10-13T03:00:17.913Z,26.58
2023-10-13T03:02:59.462Z,28.52
2023-10-13T03:05:32.656Z,26.33
2023-10-13T03:08:05.528Z,27.75
2023-10-13T03:10:41.272Z,25.67
2023-10-13T03:13:11.591Z,25.52
2023-10-13T03:15:41.282Z,22.20
2023-10-13T03:18:19.797Z,21.58
2023-10-13T03:20:58.000Z,20.48
2023-10-13T03:23:27.308Z,23.38
2023-10-13T03:26:08.877Z,26.75
2023-10-13T03:28:39.839Z,26.90
2023-10-13T03:31:19.197Z,20.53
2023-10-13T03:33:57.947Z,20.05
2023-10-13T03:36:45.656Z,21.17
2023-10-13T03:39:18.427Z,25.33
2023-10-13T03:41:57.257Z,23.83
2023-10-13T03:44:31.842Z,26.23
2023-10-13T03:47:19.412Z,19.73
2023-10-13T03:49:52.671Z,23.63
2023-10-13T03:54:54.556Z,46.53
2023-10-13T03:57:28.793Z,24.58
2023-10-13T03:59:59.203Z,20.45
2023-10-13T04:02:30.112Z,21.20
2023-10-13T04:05:08.818Z,22.70
2023-10-13T04:08:02.382Z,20.02
2023-10-13T04:10:50.836Z,24.17
2023-10-13T04:13:40.675Z,24.30
2023-10-13T04:16:25.612Z,26.92
2023-10-13T04:19:09.503Z,24.38
2023-10-13T04:21:56.523Z,19.13
2023-10-13T04:24:54.964Z,20.08
2023-10-13T04:27:55.325Z,19.60
2023-10-13T04:30:34.302Z,19.52
2023-10-13T04:33:36.972Z,19.63
2023-10-13T04:36:15.312Z,21.10
2023-10-13T04:38:57.644Z,18.45
2023-10-13T04:41:33.094Z,22.95
2023-10-13T04:44:06.285Z,23.10
2023-10-13T04:46:55.461Z,20.88
2023-10-13T04:49:37.027Z,22.85
2023-10-13T04:52:28.305Z,27.00
2023-10-13T04:55:11.023Z,27.52
2023-10-13T04:57:51.411Z,26.27
2023-10-13T05:00:50.963Z,27.20
2023-10-13T05:03:40.469Z,29.15
2023-10-13T05:06:32.683Z,28.95
2023-10-13T05:09:21.119Z,28.88
2023-10-13T05:12:09.139Z,30.65
2023-10-13T05:14:58.815Z,30.42
2023-10-13T05:17:47.002Z,29.33
2023-10-13T05:20:51.286Z,30.98
2023-10-13T05:23:39.483Z,35.17
2023-10-13T05:26:27.888Z,34.88
2023-10-13T05:29:27.833Z,34.50
2023-10-13T05:32:35.352Z,31.50
2023-10-13T05:35:23.919Z,32.70
2023-10-13T05:38:13.321Z,33.47
2023-10-13T05:41:11.371Z,34.05
2023-10-13T05:43:59.711Z,32.60
2023-10-13T05:46:47.620Z,26.42
2023-10-13T05:49:43.077Z,33.22
2023-10-13T05:52:20.642Z,29.95
2023-10-13T05:55:09.983Z,31.02
2023-10-13T05:57:58.054Z,30.13
2023-10-13T06:00:46.964Z,29.58
2023-10-13T06:03:35.391Z,29.13
2023-10-13T06:06:27.545Z,33.72
2023-10-13T06:09:15.072Z,25.02
2023-10-13T06:12:04.776Z,27.58
2023-10-13T06:14:52.483Z,27.13
2023-10-13T06:17:52.117Z,26.67
2023-10-13T06:20:40.996Z,25.35
2023-10-13T06:23:29.241Z,28.70
2023-10-13T06:26:16.641Z,28.98
2023-10-13T06:28:50.755Z,29.25
2023-10-13T06:31:24.310Z,27.08
2023-10-13T06:33:57.019Z,25.65
2023-10-13T06:36:28.257Z,29.50
2023-10-13T06:39:18.941Z,25.52
2023-10-13T06:41:49.394Z,25.05
2023-10-13T06:44:22.818Z,24.25
2023-10-13T06:46:53.879Z,27.80
2023-10-13T06:49:24.957Z,27.83
2023-10-13T06:52:01.729Z,23.30
2023-10-13T06:54:34.864Z,23.02
2023-10-13T06:57:08.396Z,22.17
2023-10-13T06:59:41.773Z,24.50
2023-10-13T07:02:28.438Z,22.60
2023-10-13T07:05:09.270Z,22.52
2023-10-13T07:07:41.978Z,22.77
2023-10-13T07:10:14.024Z,20.80
2023-10-13T07:12:51.106Z,23.08
2023-10-13T07:15:28.663Z,20.58
2023-10-13T07:18:00.789Z,21.45
2023-10-13T07:20:36.510Z,23.02
2023-10-13T07:23:09.862Z,23.63
2023-10-13T07:25:42.201Z,23.20
2023-10-13T07:28:13.143Z,22.65
2023-10-13T07:30:51.381Z,21.45
2023-10-13T07:33:21.888Z,21.45
2023-10-13T07:36:12.287Z,20.75
2023-10-13T07:38:43.809Z,22.55
2023-10-13T07:41:17.061Z,20.65
2023-10-13T07:43:51.797Z,21.02
2023-10-13T07:46:31.445Z,21.08
2023-10-13T07:49:10.796Z,19.42
2023-10-13T07:51:45.683Z,19.05
2023-10-13T07:54:23.141Z,20.38
2023-10-13T07:56:56.144Z,19.40
2023-10-13T07:59:30.430Z,20.20
2023-10-13T08:02:15.307Z,19.70
2023-10-13T08:04:44.621Z,21.35
2023-10-13T08:07:15.388Z,19.88
2023-10-13T08:09:52.891Z,19.00
2023-10-13T08:12:24.144Z,20.65
2023-10-13T08:15:12.798Z,17.45
2023-10-13T08:17:46.169Z,17.05
2023-10-13T08:20:18.696Z,16.05
2023-10-13T08:23:10.068Z,15.80
2023-10-13T08:28:58.292Z,13.55
2023-10-13T08:31:30.678Z,13.20
2023-10-13T08:34:08.200Z,13.85
2023-10-13T08:36:39.731Z,13.38
2023-10-13T08:39:39.505Z,12.90
2023-10-13T08:42:13.845Z,12.00
2023-10-13T08:44:54.133Z,12.05
2023-10-13T08:47:37.477Z,11.95
2023-10-13T08:50:32.548Z,12.90
2023-10-13T08:53:10.930Z,12.82
2023-10-13T08:56:02.480Z,12.02
2023-10-13T08:58:47.352Z,11.85
2023-10-13T09:01:36.476Z,11.30
2023-10-13T09:04:24.439Z,11.82
2023-10-13T09:07:08.959Z,10.68
2023-10-13T09:10:14.228Z,10.93
2023-10-13T09:15:50.996Z,9.80
2023-10-13T09:18:45.905Z,9.45
2023-10-13T09:21:40.922Z,9.57
2023-10-13T09:24:31.323Z,9.80
2023-10-13T09:27:04.576Z,10.97
2023-10-13T09:29:41.390Z,10.05
2023-10-13T09:32:13.735Z,10.80
2023-10-13T09:34:46.533Z,9.35
2023-10-13T09:37:22.444Z,9.63
2023-10-13T09:39:55.962Z,9.38
2023-10-13T09:42:27.574Z,9.82
2023-10-13T09:45:00.711Z,10.18
2023-10-13T09:47:38.528Z,9.25
2023-10-13T09:50:25.398Z,10.55
2023-10-13T09:52:57.987Z,8.60
2023-10-13T09:55:33.317Z,9.38
2023-10-13T09:58:12.035Z,8.80
2023-10-13T10:00:51.335Z,8.18
2023-10-13T10:03:48.014Z,6.50
2023-10-13T10:06:32.423Z,7.05
2023-10-13T10:09:13.980Z,7.07
2023-10-13T10:12:33.012Z,7.07
2023-10-13T10:15:35.696Z,7.05
2023-10-13T10:18:28.636Z,6.65
2023-10-13T10:21:10.873Z,6.88
2023-10-13T10:23:45.380Z,6.95
2023-10-13T10:26:21.520Z,6.57
2023-10-13T10:28:52.149Z,7.15
2023-10-13T10:31:37.025Z,6.82
2023-10-13T10:34:17.051Z,7.45
2023-10-13T10:36:52.666Z,6.57
2023-10-13T10:39:46.365Z,6.10
2023-10-13T10:42:18.620Z,5.88
2023-10-13T10:44:49.420Z,6.28
2023-10-13T10:47:32.689Z,6.40
2023-10-13T10:52:42.406Z,5.85
2023-10-13T10:55:24.056Z,5.40
2023-10-13T10:58:02.696Z,6.75
2023-10-13T11:00:46.994Z,6.25
2023-10-13T11:03:18.715Z,5.35
2023-10-13T11:05:51.343Z,5.10
2023-10-13T11:08:32.726Z,5.15
2023-10-13T11:11:06.898Z,5.35
2023-10-13T11:13:52.327Z,5.55
2023-10-13T11:16:26.214Z,5.75
2023-10-13T11:19:06.514Z,5.40
2023-10-13T11:21:38.863Z,5.32
2023-10-13T11:24:11.589Z,6.20
2023-10-13T11:26:50.598Z,5.33
2023-10-13T11:29:22.073Z,5.50
2023-10-13T11:31:59.779Z,5.60
2023-10-13T11:34:41.129Z,5.75
2023-10-13T11:37:29.273Z,5.00
2023-10-13T11:39:59.939Z,5.80
2023-10-13T11:42:32.010Z,5.57
2023-10-13T11:45:24.277Z,5.53
2023-10-13T11:48:00.835Z,4.95
2023-10-13T11:50:36.245Z,5.00
2023-10-13T11:53:09.246Z,5.43
2023-10-13T11:55:40.053Z,5.75
2023-10-13T11:58:11.933Z,5.35
2023-10-13T12:01:02.897Z,4.47
2023-10-13T12:03:51.445Z,4.60
2023-10-13T12:06:35.116Z,4.75
2023-10-13T12:09:20.207Z,4.55
2023-10-13T12:11:52.555Z,4.22
2023-10-13T12:14:31.125Z,4.25
2023-10-13T12:17:06.105Z,4.35
2023-10-13T12:19:39.697Z,4.30
2023-10-13T12:22:10.701Z,3.83
2023-10-13T12:24:43.962Z,4.13
2023-10-13T12:27:28.251Z,4.15
2023-10-13T12:30:08.827Z,4.10
2023-10-13T12:32:47.145Z,3.95
2023-10-13T12:35:28.958Z,3.50
2023-10-13T12:38:07.278Z,3.65
2023-10-13T12:40:55.316Z,3.67
2023-10-13T12:43:57.790Z,3.35
2023-10-13T12:46:46.360Z,3.67
2023-10-13T12:49:38.515Z,3.60
2023-10-13T12:52:17.391Z,3.80
2023-10-13T12:55:00.096Z,3.72
2023-10-13T12:57:31.633Z,3.97
2023-10-13T13:00:17.807Z,3.72
2023-10-13T13:02:57.376Z,3.80
2023-10-13T13:05:32.679Z,3.90
2023-10-13T13:08:04.170Z,3.58
2023-10-13T13:10:38.478Z,3.97
2023-10-13T13:13:10.235Z,3.80
2023-10-13T13:15:43.766Z,3.85
2023-10-13T13:18:16.231Z,4.00
2023-10-13T13:20:55.389Z,4.13
2023-10-13T13:23:27.688Z,3.88
2023-10-13T13:25:59.428Z,3.58
2023-10-13T13:28:32.183Z,3.85
2023-10-13T13:31:09.389Z,4.18
2023-10-13T13:33:44.470Z,4.45
2023-10-13T13:36:17.599Z,4.57
2023-10-13T13:38:51.517Z,3.97
2023-10-13T13:41:22.952Z,4.78
2023-10-13T13:43:58.095Z,4.47
2023-10-13T13:46:34.210Z,4.43
2023-10-13T13:49:08.638Z,4.47
2023-10-13T13:51:39.527Z,3.90
2023-10-13T13:54:09.956Z,4.63
2023-10-13T13:56:40.816Z,4.32
2023-10-13T13:59:15.844Z,4.35
2023-10-13T14:01:46.724Z,4.03
2023-10-13T14:04:32.401Z,4.82
2023-10-13T14:07:07.657Z,4.95
2023-10-13T14:09:44.241Z,4.70
2023-10-13T14:12:31.499Z,4.15
2023-10-13T14:15:02.846Z,4.65
2023-10-13T14:17:37.028Z,4.15
2023-10-13T14:20:19.522Z,4.55
2023-10-13T14:22:50.738Z,4.95
2023-10-13T14:25:25.555Z,4.53
2023-10-13T14:27:59.944Z,3.90
2023-10-13T14:30:32.564Z,5.07
2023-10-13T14:33:03.468Z,4.95
2023-10-13T14:35:41.547Z,4.95
2023-10-13T14:38:13.153Z,4.65
2023-10-13T14:40:43.620Z,5.10
2023-10-13T14:43:14.636Z,5.03
2023-10-13T14:45:44.963Z,4.75
2023-10-13T14:48:17.850Z,5.70
2023-10-13T14:50:49.792Z,5.00
2023-10-13T14:53:23.236Z,5.45
2023-10-13T14:58:30.964Z,5.00
2023-10-13T15:01:02.235Z,5.15
2023-10-13T15:03:39.379Z,5.47
2023-10-13T15:06:18.645Z,5.60
2023-10-13T15:08:50.301Z,5.32
2023-10-13T15:11:20.668Z,5.43
2023-10-13T15:13:51.893Z,4.78
2023-10-13T15:16:25.858Z,5.50
2023-10-13T15:18:57.079Z,5.38
2023-10-13T15:21:35.586Z,4.50
2023-10-13T15:24:24.699Z,4.97
2023-10-13T15:27:04.224Z,5.18
2023-10-13T15:29:41.506Z,4.95
2023-10-13T15:32:29.247Z,5.63
2023-10-13T15:35:00.884Z,5.63
2023-10-13T15:37:33.504Z,4.75
2023-10-13T15:40:16.744Z,4.50
2023-10-13T15:42:47.835Z,5.90
2023-10-13T15:45:19.560Z,5.35
2023-10-13T15:50:24.286Z,5.20
2023-10-13T15:52:56.515Z,5.25
2023-10-13T15:55:27.594Z,5.77
2023-10-13T15:57:58.604Z,5.80
2023-10-13T16:00:30.621Z,5.47
2023-10-13T16:03:01.213Z,5.30
2023-10-13T16:05:36.136Z,5.35
2023-10-13T16:08:12.587Z,5.88
2023-10-13T16:10:45.225Z,5.32
2023-10-13T16:13:21.451Z,5.38
2023-10-13T16:15:53.676Z,5.47
2023-10-13T16:18:24.372Z,6.60
2023-10-13T16:20:55.948Z,6.10
2023-10-13T16:23:29.227Z,5.80
2023-10-13T16:26:02.729Z,5.88
2023-10-13T16:28:35.768Z,6.05
2023-10-13T16:31:09.046Z,6.32
2023-10-13T16:33:41.339Z,6.43
2023-10-13T16:36:14.619Z,6.90
2023-10-13T16:38:47.017Z,7.60
2023-10-13T16:41:17.898Z,7.43
2023-10-13T16:43:48.704Z,6.63
2023-10-13T16:46:21.046Z,5.60
2023-10-13T16:48:52.594Z,6.43
2023-10-13T16:51:23.930Z,6.47
2023-10-13T16:53:55.946Z,6.15
2023-10-13T16:56:29.405Z,6.10
2023-10-13T16:58:59.723Z,7.28
2023-10-13T17:01:30.847Z,6.55
2023-10-13T17:04:01.376Z,6.82
2023-10-13T17:06:32.610Z,7.10
2023-10-13T17:09:05.601Z,6.82
2023-10-13T17:14:10.761Z,6.57
2023-10-13T17:16:42.926Z,7.30
2023-10-13T17:19:13.330Z,7.32
2023-10-13T17:21:45.707Z,7.68
2023-10-13T17:24:18.170Z,7.25
2023-10-13T17:26:51.242Z,7.63
2023-10-13T17:29:24.992Z,7.47
2023-10-13T17:32:02.105Z,7.13
2023-10-13T17:34:33.137Z,7.50
2023-10-13T17:37:04.837Z,7.35
2023-10-13T17:39:37.042Z,7.35
2023-10-13T17:42:08.269Z,8.23
2023-10-13T17:44:42.536Z,8.95
2023-10-13T17:47:20.714Z,8.10
2023-10-13T17:49:53.361Z,9.85
2023-10-13T17:52:24.245Z,8.77
2023-10-13T17:54:59.431Z,9.07
2023-10-13T17:57:30.246Z,9.45
2023-10-13T18:00:03.734Z,9.95
2023-10-13T18:02:55.610Z,9.70
2023-10-13T18:05:26.820Z,10.43
2023-10-13T18:08:00.266Z,9.23
2023-10-13T18:10:37.732Z,10.00
2023-10-13T18:13:08.393Z,10.88
2023-10-13T18:15:39.828Z,10.30
2023-10-13T18:18:10.465Z,10.35
2023-10-13T18:20:41.361Z,10.60
2023-10-13T18:23:12.888Z,11.40
2023-10-13T18:25:46.551Z,10.70
2023-10-13T18:28:17.277Z,11.38
2023-10-13T18:30:47.956Z,11.20
2023-10-13T18:33:23.760Z,10.75
2023-10-13T18:35:54.951Z,10.50
2023-10-13T18:38:28.134Z,10.35
2023-10-13T18:41:00.414Z,10.73
2023-10-13T18:43:31.353Z,11.10
2023-10-13T18:46:04.814Z,10.73
2023-10-13T18:48:37.162Z,10.45
2023-10-13T18:51:08.913Z,11.10
2023-10-13T18:53:42.007Z,10.90
2023-10-13T18:56:16.441Z,11.05
2023-10-13T18:58:55.257Z,11.40
2023-10-13T19:01:28.739Z,11.10
2023-10-13T19:04:05.517Z,11.82
2023-10-13T19:06:39.460Z,11.27
2023-10-13T19:09:10.955Z,11.10
2023-10-13T19:11:47.922Z,10.88
2023-10-13T19:14:20.271Z,10.60
2023-10-13T19:16:51.469Z,9.70
2023-10-13T19:19:30.618Z,10.57
2023-10-13T19:22:07.885Z,10.13
2023-10-13T19:24:39.355Z,10.20
2023-10-13T19:27:11.397Z,11.05
2023-10-13T19:29:44.766Z,10.13
2023-10-13T19:32:18.433Z,9.65
2023-10-13T19:34:51.315Z,8.80
2023-10-13T19:37:22.361Z,9.40
2023-10-13T19:39:54.324Z,8.73
2023-10-13T19:42:26.126Z,8.00
2023-10-13T19:45:03.795Z,8.07
2023-10-13T19:47:39.490Z,7.70
2023-10-13T19:50:16.019Z,7.90
2023-10-13T19:52:49.959Z,8.05
2023-10-13T19:55:22.786Z,8.50
2023-10-13T19:58:01.392Z,8.45
2023-10-13T20:00:42.113Z,8.00
2023-10-13T20:03:15.108Z,8.50
2023-10-13T20:05:47.014Z,8.13
2023-10-13T20:08:18.912Z,9.52
2023-10-13T20:10:50.282Z,8.70
2023-10-13T20:13:25.364Z,8.30
2023-10-13T20:16:03.979Z,9.00
2023-10-13T20:18:35.637Z,8.75
2023-10-13T20:21:07.278Z,9.48
2023-10-13T20:23:38.064Z,8.45
2023-10-13T20:26:10.240Z,8.75
2023-10-13T20:28:42.687Z,8.48
2023-10-13T20:31:19.755Z,8.68
2023-10-13T20:33:51.273Z,7.75
2023-10-13T20:36:25.957Z,8.38
2023-10-13T20:38:59.008Z,7.60
2023-10-13T20:41:30.017Z,8.02
2023-10-13T20:44:01.995Z,7.47
2023-10-13T20:46:35.176Z,7.47
2023-10-13T20:49:06.137Z,8.73
2023-10-13T20:51:38.297Z,7.72
2023-10-13T20:54:12.111Z,8.60
2023-10-13T20:56:48.029Z,8.32
2023-10-13T20:59:20.665Z,8.80
2023-10-13T21:01:51.903Z,8.68
2023-10-13T21:04:22.573Z,9.57
2023-10-13T21:06:53.913Z,8.68
2023-10-13T21:09:24.906Z,8.43
2023-10-13T21:11:59.922Z,8.57
2023-10-13T21:14:35.379Z,8.90
2023-10-13T21:17:07.493Z,10.05
2023-10-13T21:19:40.735Z,8.95
2023-10-13T21:22:12.541Z,8.50
2023-10-13T21:24:44.847Z,8.43
2023-10-13T21:27:17.038Z,8.53
2023-10-13T21:29:49.963Z,8.85
2023-10-13T21:32:20.907Z,8.98
2023-10-13T21:34:52.907Z,9.02
2023-10-13T21:37:25.891Z,8.93
2023-10-13T21:39:57.966Z,9.10
2023-10-13T21:42:29.406Z,9.10
2023-10-13T21:45:02.652Z,7.97
2023-10-13T21:50:04.895Z,8.25
2023-10-13T21:52:36.906Z,7.40
2023-10-13T21:55:20.077Z,6.85
2023-10-13T21:57:53.918Z,7.60
2023-10-13T22:03:13.882Z,7.00
2023-10-13T22:08:16.780Z,6.60
2023-10-13T22:10:50.652Z,7.10
2023-10-13T22:13:21.582Z,7.32
2023-10-13T22:15:53.216Z,8.30
2023-10-13T22:18:23.822Z,9.20
2023-10-13T22:20:55.156Z,7.75
2023-10-13T22:23:26.140Z,8.15
2023-10-13T22:25:56.908Z,9.02
2023-10-13T22:28:29.777Z,7.43
2023-10-13T22:31:01.595Z,8.67
2023-10-13T22:33:32.268Z,8.82
2023-10-13T22:36:02.836Z,7.40
2023-10-13T22:38:36.398Z,7.32
2023-10-13T22:41:07.791Z,6.70
2023-10-13T22:43:40.132Z,6.10
2023-10-13T22:46:11.905Z,5.97
2023-10-13T22:48:42.622Z,5.53
2023-10-13T22:51:15.253Z,6.47
2023-10-13T22:53:47.399Z,6.95
2023-10-13T22:56:19.826Z,6.32
2023-10-13T22:58:50.825Z,6.50
2023-10-13T23:01:23.309Z,6.43
2023-10-13T23:03:58.661Z,6.85
2023-10-13T23:06:33.308Z,6.57
2023-10-13T23:09:14.382Z,6.85
2023-10-13T23:11:49.437Z,6.72
2023-10-13T23:14:20.074Z,6.68
2023-10-13T23:16:52.471Z,6.90
2023-10-13T23:19:24.336Z,7.32
2023-10-13T23:21:55.719Z,7.18
2023-10-13T23:24:26.550Z,6.72
2023-10-13T23:26:56.693Z,7.15
2023-10-13T23:29:28.059Z,6.72
2023-10-13T23:32:00.055Z,6.97
2023-10-13T23:34:32.460Z,5.63
2023-10-13T23:37:05.069Z,6.35
2023-10-13T23:39:35.813Z,5.75
2023-10-13T23:42:08.764Z,6.53
2023-10-13T23:44:39.590Z,6.55
2023-10-13T23:47:11.734Z,6.47
2023-10-13T23:49:42.491Z,6.33
2023-10-13T23:52:12.771Z,6.00
2023-10-13T23:54:43.600Z,7.57
2023-10-13T23:57:14.632Z,6.15
2023-10-13T23:59:45.307Z,5.85
